Airfield :
LOGIN :

Register | Disclaimer

   EN    FR    IT 

 










Legend :    VFR   Marginal VFR   IFR   Intensive IFR   Very Intensive IFR
Visi :
Ceiling :
>= 8 km
>= 3000ft
5 to 8 km
1000 to 3000 ft
1500m to 5 km
500 to 1000 ft
800 to 1500m
200 to 500 ft
< 800m
< 200 ft
Symbols :   Thunderstorms  Fog  Heavy snow  Heavy precipitations  Wind > 20 kt
SIGMETs :     Misc.  Thunderstorms  Icing  Turbulence  Mountain Waves  Volcanic Ashes






- Airport Elevation : 272 ft
- IATA code : MXN


LFRU - Morlaix-Ploujean

CURRENT METAR :
  • 061600Z AUTO 25015KT 9999 BKN018 BKN032 OVC042 12/10 Q1012

EXPIRED METARs :
  • 061530Z AUTO 26015KT 9999 BKN015 OVC021 12/10 Q1012
  • 061500Z AUTO 27015KT 240V300 9999 OVC015 12/10 Q1012
  • 061430Z AUTO 27014KT 9999 FEW004 BKN014 OVC027 12/11 Q1012
  • 061400Z AUTO 26016KT 5000 -RA BR OVC006 12/12 Q1012
  • 061330Z AUTO 24015KT 2400 -RA BR OVC005 12/12 Q1012

TAF N/A



MET'MAP, your aeronautical weather chart ! - Copyright ORBIFLY December 2007 - Disclaimer

ORBIFLY MET'MAP TEAM :

Programming & Development : Alexandra Zaïnal
Concept & original design : Baudouin d'Aumeries
Assistance for programming : Marc-Olivier Méhu
Technical & hardware support : Manuel Goepfert

Contact : metmap@orbifly.com




SOURCES & CREDITS :

   NOAA